Time;durP1;ratioP1;P1;durP2;ratioP2;P2;SDS_P1;SDS_P2;PMS_P1;PMS_P2;Temp;Humidity;BMP_temperature;BMP_pressure;BME280_temperature;BME280_humidity;BME280_pressure;Samples;Min_cycle;Max_cycle;Signal;HPM_P1;HPM_P2
2022/04/25 00:02:09;;;;;;;56.35;37.70;;;28.40;99.90;;;;;;5090886;28;20028;-66
2022/04/25 00:04:36;;;;;;;50.53;34.80;;;28.40;99.90;;;;;;5087434;28;20036;-64
2022/04/25 00:07:03;;;;;;;48.75;33.30;;;28.40;99.90;;;;;;5092707;28;20028;-64
2022/04/25 00:09:30;;;;;;;44.75;30.40;;;28.50;99.90;;;;;;5096895;28;20422;-64
2022/04/25 00:11:56;;;;;;;41.88;28.20;;;28.40;99.90;;;;;;5096554;28;20035;-64
2022/04/25 00:14:23;;;;;;;42.05;26.27;;;28.50;99.90;;;;;;5096214;28;20048;-64
2022/04/25 00:16:55;;;;;;;37.05;25.98;;;28.50;99.90;;;;;;5096884;28;20020;-63
2022/04/25 00:19:23;;;;;;;39.47;27.38;;;28.50;99.90;;;;;;5096896;28;20031;-64
2022/04/25 00:21:51;;;;;;;42.17;29.65;;;28.50;99.90;;;;;;5096974;28;20077;-65
2022/04/25 00:24:18;;;;;;;42.15;27.95;;;28.50;99.90;;;;;;5094870;28;20380;-63
2022/04/25 00:26:45;;;;;;;40.25;25.83;;;28.60;99.90;;;;;;5095738;28;20032;-64
2022/04/25 00:29:12;;;;;;;40.10;27.15;;;28.60;99.90;;;;;;5096409;28;20095;-64
2022/04/25 00:31:40;;;;;;;36.28;24.10;;;28.70;99.90;;;;;;5095398;28;20354;-66
2022/04/25 00:34:06;;;;;;;35.88;24.05;;;28.70;99.90;;;;;;5096016;28;20053;-63
2022/04/25 00:36:33;;;;;;;33.70;22.98;;;28.80;99.90;;;;;;5096223;28;20036;-64
2022/04/25 00:39:00;;;;;;;30.45;22.50;;;28.80;99.90;;;;;;5096358;28;20042;-64
2022/04/25 00:41:27;;;;;;;31.17;21.48;;;28.80;99.90;;;;;;5090961;28;20070;-64
2022/04/25 00:43:57;;;;;;;35.90;22.50;;;28.90;99.90;;;;;;5093337;28;20434;-63
2022/04/25 00:46:26;;;;;;;32.30;20.23;;;28.90;99.90;;;;;;5072888;28;20136;-65
2022/04/25 00:48:53;;;;;;;31.00;20.63;;;29.00;99.90;;;;;;5091775;28;20028;-63
2022/04/25 00:51:20;;;;;;;32.65;20.92;;;29.10;99.90;;;;;;5090620;28;20035;-63
2022/04/25 00:53:48;;;;;;;27.45;20.10;;;29.10;99.90;;;;;;5092203;28;20054;-63
2022/04/25 00:56:16;;;;;;;45.08;19.25;;;29.00;99.90;;;;;;5088659;28;20032;-63
2022/04/25 00:58:45;;;;;;;31.33;20.67;;;29.10;99.90;;;;;;5092266;28;20044;-63
2022/04/25 01:01:13;;;;;;;24.42;17.77;;;29.30;99.90;;;;;;5089981;28;20028;-62
2022/04/25 01:03:40;;;;;;;23.52;16.83;;;29.30;99.90;;;;;;5095682;28;20051;-63
2022/04/25 01:06:07;;;;;;;25.15;16.77;;;29.40;99.90;;;;;;5090395;28;20032;-64
2022/04/25 01:08:34;;;;;;;24.20;15.93;;;29.40;99.90;;;;;;5095652;28;20032;-64
2022/04/25 01:11:06;;;;;;;24.23;16.33;;;29.50;99.90;;;;;;5093356;28;20081;-64
2022/04/25 01:13:33;;;;;;;25.20;15.90;;;29.50;99.90;;;;;;5095063;28;20032;-64
2022/04/25 01:16:00;;;;;;;26.98;16.13;;;29.60;99.90;;;;;;5091555;28;20028;-64
2022/04/25 01:18:27;;;;;;;28.90;16.77;;;29.60;99.90;;;;;;5093651;28;20055;-63
2022/04/25 01:20:57;;;;;;;34.20;16.50;;;29.70;99.90;;;;;;5092378;28;20495;-64
2022/04/25 01:28:25;;;;;;;29.73;16.75;;;29.50;99.90;;;;;;5091877;28;20020;-64
2022/04/25 01:30:52;;;;;;;24.58;16.08;;;29.60;99.90;;;;;;5088235;28;20411;-64
2022/04/25 01:33:18;;;;;;;18.83;13.32;;;29.60;99.90;;;;;;5092955;28;20055;-64
2022/04/25 01:35:45;;;;;;;20.50;14.50;;;29.60;99.90;;;;;;5094976;28;20034;-64
2022/04/25 01:38:11;;;;;;;19.40;12.73;;;29.60;99.90;;;;;;5086831;28;20062;-63
2022/04/25 01:40:38;;;;;;;21.42;13.70;;;29.60;99.90;;;;;;5090680;28;20031;-63
2022/04/25 01:43:05;;;;;;;23.80;14.55;;;29.60;99.90;;;;;;5089842;28;20090;-64
2022/04/25 01:45:31;;;;;;;20.90;14.57;;;29.60;99.90;;;;;;5094323;28;20027;-64
2022/04/25 01:47:58;;;;;;;39.40;18.55;;;29.60;99.90;;;;;;5089687;28;20032;-64
2022/04/25 01:50:25;;;;;;;40.20;21.63;;;29.70;99.90;;;;;;5090922;28;20020;-64
2022/04/25 01:52:51;;;;;;;31.27;19.85;;;29.60;99.90;;;;;;5088892;28;20025;-64
2022/04/25 01:55:18;;;;;;;33.10;20.75;;;29.60;99.90;;;;;;5093530;28;20114;-64
2022/04/25 01:57:45;;;;;;;30.38;20.83;;;29.60;99.90;;;;;;5090793;28;20028;-65
2022/04/25 02:00:12;;;;;;;31.63;18.65;;;29.60;99.90;;;;;;5093388;28;20062;-64
2022/04/25 02:02:38;;;;;;;41.70;22.33;;;29.60;99.90;;;;;;5087978;28;20039;-64
2022/04/25 02:05:06;;;;;;;32.05;18.63;;;29.70;99.90;;;;;;5091851;28;20141;-64
2022/04/25 02:07:33;;;;;;;28.27;17.67;;;29.80;99.90;;;;;;5094521;28;20032;-62
2022/04/25 02:10:00;;;;;;;32.55;17.65;;;29.90;99.90;;;;;;5085281;28;20471;-64
2022/04/25 02:12:26;;;;;;;21.92;16.52;;;30.00;99.90;;;;;;5093540;28;20334;-64
2022/04/25 02:14:53;;;;;;;26.02;18.02;;;30.10;99.90;;;;;;5094082;28;20036;-64
2022/04/25 02:17:20;;;;;;;31.85;18.17;;;30.20;99.90;;;;;;5092398;28;20036;-64
2022/04/25 02:19:47;;;;;;;25.67;18.40;;;30.20;99.90;;;;;;5090597;28;20042;-65
2022/04/25 02:22:16;;;;;;;27.90;17.42;;;30.20;99.90;;;;;;5093723;28;20092;-64
2022/04/25 02:24:43;;;;;;;31.25;17.75;;;30.10;99.90;;;;;;5092087;28;20036;-65
2022/04/25 02:27:10;;;;;;;27.02;17.95;;;30.10;99.90;;;;;;5091478;28;20063;-65
2022/04/25 02:29:39;;;;;;;26.00;17.35;;;30.20;99.90;;;;;;5080442;22;20480;-65
2022/04/25 02:32:07;;;;;;;27.52;17.88;;;30.20;99.90;;;;;;5065489;28;20037;-64
2022/04/25 02:34:33;;;;;;;24.77;16.98;;;30.20;99.90;;;;;;5071403;28;20032;-65
2022/04/25 02:37:00;;;;;;;29.50;18.95;;;30.20;99.90;;;;;;5068280;28;20457;-64
2022/04/25 02:39:27;;;;;;;27.75;18.85;;;30.20;99.90;;;;;;5070176;28;20060;-64
2022/04/25 02:41:53;;;;;;;28.55;18.83;;;30.20;99.90;;;;;;5073305;28;20078;-64
2022/04/25 02:44:20;;;;;;;33.35;18.95;;;30.20;99.90;;;;;;5072401;28;20024;-63
2022/04/25 02:46:47;;;;;;;40.45;21.65;;;30.20;99.90;;;;;;5071491;28;20184;-64
2022/04/25 02:49:13;;;;;;;29.02;19.77;;;30.30;99.90;;;;;;5072027;28;20021;-66
2022/04/25 02:51:40;;;;;;;30.45;18.15;;;30.30;99.90;;;;;;5068051;28;20029;-63
2022/04/25 02:54:07;;;;;;;30.70;19.40;;;30.30;99.90;;;;;;5063463;28;20028;-65
2022/04/25 02:56:34;;;;;;;38.45;22.27;;;30.30;99.90;;;;;;5070610;28;20439;-62
2022/04/25 02:59:01;;;;;;;34.03;19.35;;;30.30;99.90;;;;;;5069361;28;20047;-63
2022/04/25 03:01:27;;;;;;;26.02;18.45;;;30.30;99.90;;;;;;5070172;28;20540;-63
2022/04/25 03:03:54;;;;;;;25.15;17.52;;;30.30;99.90;;;;;;5072914;28;20033;-64
2022/04/25 03:06:21;;;;;;;35.90;23.77;;;30.40;99.90;;;;;;5070190;28;20361;-63
2022/04/25 03:08:47;;;;;;;54.28;35.92;;;30.40;99.90;;;;;;5071800;28;20108;-66
2022/04/25 03:11:14;;;;;;;26.23;19.40;;;30.50;99.90;;;;;;5068690;28;20056;-62
2022/04/25 03:13:41;;;;;;;35.05;19.67;;;30.70;99.90;;;;;;5070929;28;20028;-65
2022/04/25 03:16:08;;;;;;;19.95;16.10;;;30.60;99.90;;;;;;5069836;28;20033;-65
2022/04/25 03:18:35;;;;;;;33.17;19.90;;;30.60;99.90;;;;;;5072269;28;20111;-63
2022/04/25 03:21:03;;;;;;;26.52;17.67;;;30.60;99.90;;;;;;5071063;28;20032;-64
2022/04/25 03:23:30;;;;;;;21.42;14.95;;;30.60;99.90;;;;;;5072501;28;20033;-64
2022/04/25 03:25:57;;;;;;;21.98;14.50;;;30.70;99.90;;;;;;5071684;28;20107;-64
2022/04/25 03:28:24;;;;;;;24.52;16.55;;;30.80;99.90;;;;;;5071428;28;20078;-64
2022/04/25 03:30:51;;;;;;;30.00;17.83;;;30.80;99.90;;;;;;5068293;28;20033;-65
2022/04/25 03:33:19;;;;;;;27.30;15.63;;;30.80;99.90;;;;;;5071395;28;20059;-64
2022/04/25 03:35:48;;;;;;;28.85;15.70;;;30.80;99.90;;;;;;5071555;28;20036;-65
2022/04/25 03:38:17;;;;;;;31.05;15.02;;;30.80;99.90;;;;;;5071987;28;20018;-63
2022/04/25 03:40:44;;;;;;;27.40;16.48;;;30.90;99.90;;;;;;5070224;28;20035;-64
2022/04/25 03:43:17;;;;;;;29.05;16.58;;;31.10;99.90;;;;;;5072392;28;20025;-64
2022/04/25 03:45:44;;;;;;;36.75;17.77;;;31.20;99.90;;;;;;5070299;28;20718;-64
2022/04/25 03:48:11;;;;;;;35.42;17.08;;;31.20;99.90;;;;;;5074674;28;20033;-63
2022/04/25 03:50:37;;;;;;;27.73;16.23;;;31.30;99.90;;;;;;5075258;28;20131;-65
2022/04/25 03:53:12;;;;;;;26.95;15.13;;;31.40;99.90;;;;;;5075493;28;20027;-67
2022/04/25 03:58:18;;;;;;;23.02;13.52;;;31.40;99.90;;;;;;5074916;28;20032;-67
2022/04/25 04:00:44;;;;;;;34.13;17.75;;;31.40;99.90;;;;;;5071673;28;20040;-64
2022/04/25 04:03:14;;;;;;;29.77;14.98;;;31.40;99.90;;;;;;5065497;28;20543;-66
2022/04/25 04:05:42;;;;;;;25.90;15.02;;;31.50;99.90;;;;;;5078774;28;20059;-67
2022/04/25 04:08:09;;;;;;;38.25;17.27;;;31.60;99.90;;;;;;5076132;28;20695;-66
2022/04/25 04:10:36;;;;;;;27.45;15.80;;;31.60;99.90;;;;;;5070012;28;20032;-67
2022/04/25 04:13:05;;;;;;;23.13;13.18;;;31.70;99.90;;;;;;5077513;28;20021;-65
2022/04/25 04:15:32;;;;;;;19.40;13.18;;;31.70;99.90;;;;;;5076737;28;20024;-66
2022/04/25 04:17:59;;;;;;;21.80;14.10;;;31.70;99.90;;;;;;5076387;28;20020;-66
2022/04/25 04:20:26;;;;;;;34.80;21.55;;;31.70;99.90;;;;;;5075235;28;20040;-66
2022/04/25 04:22:52;;;;;;;35.28;18.55;;;31.60;99.90;;;;;;5073969;28;20028;-66
2022/04/25 04:25:20;;;;;;;28.60;14.95;;;31.70;99.90;;;;;;5074423;28;20108;-64
2022/04/25 04:27:48;;;;;;;27.63;15.52;;;31.80;99.90;;;;;;5075533;28;20020;-64
2022/04/25 04:30:15;;;;;;;16.25;11.55;;;31.90;99.90;;;;;;5073794;28;20370;-63
2022/04/25 04:32:42;;;;;;;18.48;9.98;;;31.90;99.90;;;;;;5073966;28;20032;-64
2022/04/25 04:35:11;;;;;;;20.35;11.93;;;31.80;99.90;;;;;;5074165;28;20419;-64
2022/04/25 04:37:39;;;;;;;25.08;12.07;;;31.90;99.90;;;;;;5075307;28;20032;-63
2022/04/25 04:42:47;;;;;;;50.00;32.03;;;31.90;99.90;;;;;;5072602;28;20025;-63
2022/04/25 04:45:15;;;;;;;27.52;18.15;;;32.00;99.90;;;;;;5074868;28;20016;-64
2022/04/25 04:47:42;;;;;;;26.75;16.98;;;31.90;99.90;;;;;;5072533;28;20033;-63
2022/04/25 04:50:14;;;;;;;22.35;17.17;;;31.90;99.90;;;;;;5073917;28;20086;-63
2022/04/25 04:52:46;;;;;;;34.22;24.73;;;31.90;99.90;;;;;;5070735;28;20107;-61
2022/04/25 04:55:14;;;;;;;27.83;18.30;;;31.90;99.90;;;;;;5071867;28;20027;-63
2022/04/25 04:57:41;;;;;;;24.63;16.20;;;31.90;99.90;;;;;;5074518;28;20044;-62
2022/04/25 05:00:11;;;;;;;18.05;12.27;;;31.90;99.90;;;;;;5072332;28;20517;-61
2022/04/25 05:02:38;;;;;;;17.23;11.40;;;31.90;99.90;;;;;;5072654;28;20032;-63
2022/04/25 05:05:05;;;;;;;21.48;11.50;;;31.80;99.90;;;;;;5074282;28;20028;-65
2022/04/25 05:07:32;;;;;;;25.33;17.00;;;31.90;99.90;;;;;;5071892;28;20393;-64
2022/04/25 05:09:59;;;;;;;24.30;14.70;;;31.80;99.90;;;;;;5072910;28;20035;-66
2022/04/25 05:12:27;;;;;;;28.90;13.45;;;31.90;99.90;;;;;;5072279;28;20384;-68
2022/04/25 05:14:54;;;;;;;24.52;16.33;;;31.90;99.90;;;;;;5073684;28;20044;-67
2022/04/25 05:17:22;;;;;;;23.20;14.25;;;32.00;99.90;;;;;;5073625;28;20039;-67
2022/04/25 05:19:49;;;;;;;23.95;14.23;;;32.00;99.90;;;;;;5073023;28;20056;-68
2022/04/25 05:22:16;;;;;;;26.58;12.35;;;32.10;99.90;;;;;;5073357;28;20040;-67
2022/04/25 05:24:43;;;;;;;26.00;13.15;;;32.10;99.90;;;;;;5069303;28;20171;-66
2022/04/25 05:27:10;;;;;;;38.33;22.55;;;32.20;99.90;;;;;;5068996;28;20051;-63
2022/04/25 05:29:37;;;;;;;27.65;18.33;;;32.10;99.90;;;;;;5069884;28;20044;-62
2022/04/25 05:32:04;;;;;;;31.50;19.08;;;32.20;99.90;;;;;;5072480;28;20039;-65
2022/04/25 05:34:31;;;;;;;18.90;14.52;;;32.30;99.90;;;;;;5070277;28;20404;-66
2022/04/25 05:36:57;;;;;;;17.13;12.18;;;32.20;99.90;;;;;;5073285;28;20017;-62
2022/04/25 05:39:24;;;;;;;18.80;12.00;;;32.40;99.90;;;;;;5067444;28;20595;-64
2022/04/25 05:41:51;;;;;;;17.48;12.23;;;32.40;99.90;;;;;;5068451;28;20028;-66
2022/04/25 05:44:17;;;;;;;15.02;10.93;;;32.50;99.90;;;;;;5070352;28;20025;-65
2022/04/25 05:46:44;;;;;;;20.10;11.05;;;32.40;99.90;;;;;;5073604;28;20036;-65
2022/04/25 05:54:12;;;;;;;18.55;12.38;;;32.50;99.90;;;;;;5072281;28;20024;-66
2022/04/25 05:56:39;;;;;;;22.17;13.82;;;32.60;99.90;;;;;;5068332;28;20119;-65
2022/04/25 05:59:05;;;;;;;19.92;13.23;;;32.70;99.90;;;;;;5071874;28;20069;-62
2022/04/25 06:01:32;;;;;;;10.93;8.95;;;32.90;99.90;;;;;;5070878;28;20055;-65
2022/04/25 06:03:59;;;;;;;15.23;9.25;;;32.90;98.20;;;;;;5068663;28;20166;-66
2022/04/25 06:06:26;;;;;;;25.48;17.02;;;32.90;97.90;;;;;;5073241;28;20388;-65
2022/04/25 06:08:53;;;;;;;16.83;10.82;;;32.90;98.60;;;;;;5071456;28;20461;-65
2022/04/25 06:11:21;;;;;;;13.65;9.25;;;32.90;99.50;;;;;;5068645;28;20033;-65
2022/04/25 06:13:50;;;;;;;13.93;9.02;;;32.90;97.90;;;;;;5052650;28;20028;-63
2022/04/25 06:16:17;;;;;;;11.00;8.68;;;32.80;98.50;;;;;;5068733;28;20289;-65
2022/04/25 06:18:44;;;;;;;19.23;12.30;;;32.80;96.90;;;;;;5072931;28;20051;-64
2022/04/25 06:21:10;;;;;;;15.43;10.57;;;32.70;97.70;;;;;;5073997;28;20074;-64
2022/04/25 06:23:37;;;;;;;16.83;9.57;;;32.60;97.20;;;;;;5073065;28;20067;-64
2022/04/25 06:26:04;;;;;;;14.27;8.50;;;32.60;97.80;;;;;;5058461;28;20474;-64
2022/04/25 06:28:30;;;;;;;17.10;9.27;;;32.70;99.90;;;;;;5073213;28;20036;-64
2022/04/25 06:30:58;;;;;;;11.25;9.57;;;32.70;99.90;;;;;;5073367;28;20198;-63
2022/04/25 06:33:25;;;;;;;15.25;10.52;;;32.80;99.90;;;;;;5070756;28;20040;-64
2022/04/25 06:35:52;;;;;;;22.08;12.70;;;32.90;99.90;;;;;;5063149;28;20041;-64
2022/04/25 06:38:19;;;;;;;12.32;9.57;;;33.00;99.90;;;;;;5066132;28;20107;-63
2022/04/25 06:40:46;;;;;;;11.50;8.82;;;33.20;99.90;;;;;;5066959;28;20457;-64
2022/04/25 06:43:14;;;;;;;15.52;8.85;;;33.30;99.90;;;;;;5073420;28;20029;-65
2022/04/25 06:45:41;;;;;;;15.88;8.00;;;33.30;99.90;;;;;;5073240;28;20032;-63
2022/04/25 06:48:08;;;;;;;10.15;8.68;;;33.40;99.90;;;;;;5071420;28;20063;-65
2022/04/25 06:50:35;;;;;;;11.95;8.23;;;33.50;99.70;;;;;;5070249;28;20391;-66
2022/04/25 06:53:03;;;;;;;9.90;8.02;;;33.50;99.60;;;;;;5071596;28;20100;-65
2022/04/25 06:55:29;;;;;;;11.60;8.02;;;33.50;99.50;;;;;;5073193;28;20051;-66
2022/04/25 06:57:56;;;;;;;13.55;9.30;;;33.60;99.90;;;;;;5071846;28;20032;-66
2022/04/25 07:00:25;;;;;;;15.88;9.10;;;33.70;99.90;;;;;;5072114;28;20032;-65
2022/04/25 07:02:51;;;;;;;12.15;8.40;;;33.80;99.70;;;;;;5072989;28;20039;-66
2022/04/25 07:05:18;;;;;;;9.10;8.10;;;34.00;98.50;;;;;;5071647;28;20043;-67
2022/04/25 07:07:45;;;;;;;9.70;8.05;;;33.90;98.70;;;;;;5071196;28;20470;-66
2022/04/25 07:10:12;;;;;;;10.32;7.97;;;33.90;98.60;;;;;;5069327;28;20024;-66
2022/04/25 07:12:38;;;;;;;8.75;7.40;;;33.90;97.90;;;;;;5071605;28;20032;-66
2022/04/25 07:15:06;;;;;;;13.63;7.57;;;34.00;95.70;;;;;;5072928;28;20108;-66
2022/04/25 07:17:32;;;;;;;11.98;7.75;;;33.80;95.70;;;;;;5069799;28;20032;-66
2022/04/25 07:19:59;;;;;;;11.20;7.93;;;33.80;96.60;;;;;;5071071;28;20108;-65
2022/04/25 07:30:21;;;;;;;8.73;7.10;;;33.80;96.90;;;;;;5070293;28;20378;-65
2022/04/25 07:32:48;;;;;;;9.50;7.00;;;33.70;96.30;;;;;;5071497;28;20077;-66
2022/04/25 07:35:15;;;;;;;13.73;9.90;;;33.60;96.90;;;;;;5071525;28;20024;-66
2022/04/25 07:37:42;;;;;;;10.98;8.98;;;33.50;96.40;;;;;;5069140;28;20048;-64
2022/04/25 07:40:09;;;;;;;19.88;14.45;;;33.60;96.30;;;;;;5071942;28;20101;-65
2022/04/25 07:42:39;;;;;;;16.13;12.43;;;33.60;96.60;;;;;;5071441;28;20055;-65
2022/04/25 07:45:07;;;;;;;16.00;9.15;;;33.60;96.50;;;;;;5072440;28;20029;-65
2022/04/25 07:47:35;;;;;;;13.55;7.00;;;33.70;98.40;;;;;;5069574;28;20514;-65
2022/04/25 07:50:03;;;;;;;14.57;9.98;;;33.80;97.10;;;;;;5070500;28;20050;-65
2022/04/25 07:52:29;;;;;;;16.02;8.00;;;33.80;96.30;;;;;;5071628;28;20060;-65
2022/04/25 07:54:56;;;;;;;15.40;7.70;;;33.70;96.10;;;;;;5070292;28;20040;-65
2022/04/25 07:57:23;;;;;;;9.82;7.47;;;33.70;96.30;;;;;;5069216;28;20025;-65
2022/04/25 07:59:50;;;;;;;24.25;14.68;;;33.70;96.20;;;;;;5065933;28;20039;-64
2022/04/25 08:02:20;;;;;;;20.13;10.30;;;33.60;96.50;;;;;;5069254;28;20039;-63
2022/04/25 08:04:47;;;;;;;14.40;7.45;;;33.70;96.70;;;;;;5064037;28;20115;-64
2022/04/25 08:07:14;;;;;;;11.52;7.78;;;33.70;96.90;;;;;;5069038;28;20016;-63
2022/04/25 08:09:41;;;;;;;9.70;7.22;;;33.80;95.70;;;;;;5071023;28;20139;-62
2022/04/25 08:20:04;;;;;;;9.95;8.07;;;33.80;96.60;;;;;;5069738;28;20028;-63
2022/04/25 08:22:30;;;;;;;11.00;8.07;;;33.80;96.40;;;;;;5067724;28;20542;-63
2022/04/25 08:24:58;;;;;;;9.38;7.03;;;33.80;95.60;;;;;;5070861;28;20115;-62
2022/04/25 08:27:25;;;;;;;10.88;8.10;;;33.80;96.40;;;;;;5068263;28;20020;-64
2022/04/25 08:29:51;;;;;;;11.85;7.68;;;33.80;96.60;;;;;;5071853;28;20056;-64
2022/04/25 08:32:18;;;;;;;16.00;11.20;;;33.80;96.00;;;;;;5071596;28;20021;-63
2022/04/25 08:34:45;;;;;;;16.85;10.25;;;33.80;95.30;;;;;;5070098;28;20017;-63
2022/04/25 08:37:11;;;;;;;13.10;8.57;;;33.80;96.80;;;;;;5072530;28;20025;-64
2022/04/25 08:39:39;;;;;;;15.48;7.53;;;33.80;95.40;;;;;;5072825;28;20108;-63
2022/04/25 08:42:09;;;;;;;11.70;7.55;;;33.80;95.60;;;;;;5074281;28;20147;-63
2022/04/25 08:44:37;;;;;;;18.98;8.70;;;33.80;95.30;;;;;;5074087;28;20020;-64
2022/04/25 08:47:07;;;;;;;10.18;7.80;;;33.70;95.80;;;;;;5073732;28;20024;-64
2022/04/25 08:49:35;;;;;;;14.10;7.95;;;33.70;95.40;;;;;;5073980;28;20031;-61
2022/04/25 08:52:03;;;;;;;8.75;6.55;;;33.80;95.60;;;;;;5065322;28;20037;-62
2022/04/25 08:54:32;;;;;;;10.13;7.35;;;33.70;94.60;;;;;;5075174;28;20040;-62
2022/04/25 08:57:00;;;;;;;10.70;6.93;;;33.70;96.00;;;;;;5073006;28;20079;-62
2022/04/25 08:59:27;;;;;;;12.07;7.45;;;33.70;94.80;;;;;;5073686;28;20032;-62
2022/04/25 09:01:54;;;;;;;10.50;7.25;;;33.70;94.90;;;;;;5072272;28;20111;-62
2022/04/25 09:04:20;;;;;;;10.57;7.10;;;33.80;94.70;;;;;;5074789;28;20380;-61
2022/04/25 09:06:51;;;;;;;8.73;7.28;;;33.80;94.60;;;;;;5068512;28;20029;-63
2022/04/25 09:09:18;;;;;;;13.27;8.23;;;33.70;95.00;;;;;;5058922;28;20322;-63
2022/04/25 09:14:16;;;;;;;13.05;7.63;;;33.70;95.70;;;;;;5065102;28;20477;-62
2022/04/25 09:16:43;;;;;;;14.00;7.18;;;33.70;95.20;;;;;;5063258;28;20037;-60
2022/04/25 09:19:11;;;;;;;13.55;8.25;;;33.70;95.90;;;;;;5068796;28;20032;-61
2022/04/25 09:21:42;;;;;;;16.60;8.48;;;33.60;95.70;;;;;;5066860;28;20111;-64
2022/04/25 09:24:20;;;;;;;16.98;10.00;;;33.50;96.70;;;;;;5059210;28;20025;-63
2022/04/25 09:26:49;;;;;;;11.35;9.00;;;33.50;95.90;;;;;;5066331;28;20047;-64
2022/04/25 09:29:25;;;;;;;11.00;8.40;;;33.60;96.40;;;;;;5066257;28;20045;-65
2022/04/25 09:31:52;;;;;;;14.70;8.63;;;33.60;97.10;;;;;;5073519;28;20448;-63
2022/04/25 09:34:59;;;;;;;10.13;7.47;;;33.60;96.00;;;;;;5073490;28;20024;-64
2022/04/25 09:37:06;;;;;;;15.30;11.50;;;33.60;95.50;;;;;;5068721;28;20025;-63
2022/04/25 09:39:33;;;;;;;27.08;13.73;;;33.60;96.30;;;;;;5071698;28;20040;-63
2022/04/25 09:42:01;;;;;;;59.95;40.35;;;33.60;96.80;;;;;;5068187;28;20492;-62
2022/04/25 09:44:55;;;;;;;35.72;25.73;;;33.60;98.30;;;;;;5071128;28;20035;-61
2022/04/25 09:47:31;;;;;;;34.53;28.63;;;33.60;99.90;;;;;;5054464;28;20033;-62
2022/04/25 09:50:01;;;;;;;33.17;25.95;;;33.50;99.90;;;;;;5062519;28;20031;-62
2022/04/25 09:52:28;;;;;;;29.00;22.52;;;33.40;99.90;;;;;;5075223;28;20085;-62
2022/04/25 09:54:56;;;;;;;29.65;22.27;;;33.40;99.90;;;;;;5073129;28;20099;-63
2022/04/25 09:57:30;;;;;;;47.08;28.83;;;33.40;99.90;;;;;;5062929;28;20035;-62
2022/04/25 09:59:56;;;;;;;35.45;26.25;;;33.40;99.90;;;;;;5072415;28;20070;-62
2022/04/25 10:02:23;;;;;;;30.63;22.95;;;33.40;99.90;;;;;;5072808;28;20487;-63
2022/04/25 10:04:50;;;;;;;30.35;23.38;;;33.30;99.90;;;;;;5073086;28;20494;-64
2022/04/25 10:07:20;;;;;;;29.83;23.10;;;33.30;99.90;;;;;;5071264;28;20039;-63
2022/04/25 10:09:48;;;;;;;31.65;22.88;;;33.30;99.90;;;;;;5072408;28;20032;-64
2022/04/25 10:12:17;;;;;;;30.83;22.95;;;33.20;99.90;;;;;;5069378;28;20039;-62
2022/04/25 10:14:45;;;;;;;32.53;23.50;;;33.20;99.90;;;;;;5065383;28;20029;-64
2022/04/25 10:17:12;;;;;;;30.85;23.52;;;33.10;99.90;;;;;;5074767;28;20048;-63
2022/04/25 10:19:40;;;;;;;34.85;24.50;;;33.10;99.90;;;;;;5075188;28;20032;-63
2022/04/25 10:22:07;;;;;;;33.70;24.00;;;33.00;99.90;;;;;;5074780;28;20127;-65
2022/04/25 10:24:36;;;;;;;29.48;22.23;;;32.90;99.90;;;;;;5072510;28;20346;-66
2022/04/25 10:27:12;;;;;;;30.77;24.45;;;32.90;99.90;;;;;;5081539;28;20028;-66
2022/04/25 10:29:47;;;;;;;31.05;23.38;;;32.90;99.90;;;;;;5063191;28;20123;-65
2022/04/25 10:32:18;;;;;;;29.95;24.20;;;32.80;99.90;;;;;;5074147;28;20025;-64
2022/04/25 10:34:47;;;;;;;30.27;24.90;;;32.70;99.90;;;;;;5071900;28;20029;-63
2022/04/25 10:37:29;;;;;;;31.40;24.20;;;32.70;99.90;;;;;;5073927;28;20028;-62
2022/04/25 10:39:56;;;;;;;35.75;24.17;;;32.70;99.90;;;;;;5070912;28;20101;-63
2022/04/25 10:44:56;;;;;;;40.45;30.52;;;32.60;99.90;;;;;;5070511;28;20115;-63
2022/04/25 10:47:25;;;;;;;49.42;34.25;;;32.50;99.90;;;;;;5070414;28;20024;-63
2022/04/25 10:49:56;;;;;;;47.08;31.77;;;32.50;99.90;;;;;;5073690;28;20089;-63
2022/04/25 10:55:32;;;;;;;43.00;31.92;;;32.40;99.90;;;;;;5073040;28;20029;-63
2022/04/25 10:58:05;;;;;;;45.65;32.72;;;32.40;99.90;;;;;;5073597;28;20453;-61
2022/04/25 11:03:06;;;;;;;39.60;31.67;;;32.30;99.90;;;;;;5065277;28;20400;-63
2022/04/25 11:05:37;;;;;;;47.85;35.45;;;32.30;99.90;;;;;;5074171;28;20029;-63
2022/04/25 11:08:16;;;;;;;41.05;34.45;;;32.30;99.90;;;;;;5074094;28;20060;-63
2022/04/25 11:10:58;;;;;;;43.67;34.78;;;32.30;99.90;;;;;;5060251;28;20328;-63
2022/04/25 11:13:32;;;;;;;49.75;33.65;;;32.30;99.90;;;;;;5072560;28;20032;-63
2022/04/25 11:16:12;;;;;;;67.75;52.90;;;32.30;99.90;;;;;;5070506;28;20036;-63
2022/04/25 11:18:38;;;;;;;76.38;58.50;;;32.20;99.90;;;;;;5067815;28;20028;-64
2022/04/25 11:21:15;;;;;;;52.70;41.25;;;32.20;99.90;;;;;;5073070;28;20056;-64
2022/04/25 11:23:44;;;;;;;85.40;60.45;;;32.20;99.90;;;;;;5069613;28;20025;-65
2022/04/25 11:26:36;;;;;;;78.53;55.60;;;32.20;99.90;;;;;;5055233;28;20041;-66
2022/04/25 11:29:04;;;;;;;;;;;32.20;99.90;;;;;;5066975;28;20052;-63
2022/04/25 11:31:35;;;;;;;102.57;75.72;;;32.10;99.90;;;;;;5067941;28;19987;-63
2022/04/25 11:34:05;;;;;;;57.38;41.17;;;32.10;99.90;;;;;;5073651;28;20028;-65
2022/04/25 11:36:37;;;;;;;44.03;34.22;;;32.10;99.90;;;;;;5062685;28;20039;-63
2022/04/25 11:41:44;;;;;;;41.90;32.00;;;32.00;99.90;;;;;;5058073;28;20028;-63
2022/04/25 11:44:11;;;;;;;45.25;31.88;;;32.00;99.90;;;;;;5093232;28;20024;-63
2022/04/25 11:46:38;;;;;;;57.20;38.97;;;32.00;99.60;;;;;;5073483;28;20035;-62
2022/04/25 11:49:07;;;;;;;75.43;55.55;;;32.00;99.60;;;;;;5072893;28;20035;-64
2022/04/25 11:51:35;;;;;;;79.25;58.30;;;32.10;99.30;;;;;;5074023;28;20040;-63
2022/04/25 11:54:08;;;;;;;61.63;47.30;;;32.00;99.80;;;;;;5060818;28;20021;-64
2022/04/25 11:56:39;;;;;;;76.93;51.67;;;32.00;99.90;;;;;;5065147;28;20036;-65
2022/04/25 11:59:17;;;;;;;79.53;53.97;;;32.00;99.90;;;;;;5073330;28;20033;-64
2022/04/25 12:01:51;;;;;;;76.82;58.15;;;32.00;99.90;;;;;;5074003;28;20040;-64
2022/04/25 12:04:27;;;;;;;89.70;59.70;;;32.00;99.90;;;;;;5076202;28;20108;-63
2022/04/25 12:07:04;;;;;;;95.65;67.55;;;32.00;99.90;;;;;;5078028;28;20484;-62
2022/04/25 12:17:52;;;;;;;74.00;53.30;;;31.80;99.90;;;;;;5074546;28;20052;-64
2022/04/25 12:20:28;;;;;;;97.97;70.90;;;31.90;99.90;;;;;;5078951;28;20029;-64
2022/04/25 12:22:57;;;;;;;103.53;77.22;;;31.90;99.90;;;;;;5097392;28;20027;-66
2022/04/25 12:25:29;;;;;;;76.10;53.45;;;31.90;99.90;;;;;;5070486;28;20089;-66
2022/04/25 12:28:15;;;;;;;82.50;53.67;;;31.90;99.90;;;;;;5056576;28;20405;-67
2022/04/25 12:30:48;;;;;;;72.68;51.90;;;31.80;99.90;;;;;;5067690;28;20072;-64
2022/04/25 12:33:16;;;;;;;78.57;53.38;;;31.80;99.90;;;;;;5076633;28;20103;-63
2022/04/25 12:35:45;;;;;;;80.30;53.55;;;31.80;99.90;;;;;;5076693;28;20029;-64
2022/04/25 12:38:34;;;;;;;82.72;52.42;;;31.80;99.90;;;;;;5076379;28;20028;-66
2022/04/25 12:41:01;;;;;;;70.22;47.58;;;31.80;99.90;;;;;;5067749;28;20032;-64
2022/04/25 12:43:34;;;;;;;69.65;46.30;;;31.70;99.90;;;;;;5074862;28;20107;-67
2022/04/25 12:46:00;;;;;;;61.05;44.13;;;31.70;99.90;;;;;;5071024;28;20525;-67
2022/04/25 12:48:27;;;;;;;64.65;44.10;;;31.70;99.90;;;;;;5084567;28;20028;-67
2022/04/25 12:50:54;;;;;;;61.75;43.30;;;31.70;99.90;;;;;;5076348;28;20044;-63
2022/04/25 12:53:41;;;;;;;65.63;45.08;;;31.70;99.90;;;;;;5076150;28;20025;-64
2022/04/25 12:56:09;;;;;;;66.63;47.15;;;31.60;99.90;;;;;;5074979;28;20110;-64
2022/04/25 12:58:35;;;;;;;70.78;48.17;;;31.60;99.90;;;;;;5076229;28;20020;-67
2022/04/25 13:01:03;;;;;;;66.80;47.15;;;31.60;99.90;;;;;;5074942;28;20032;-64
2022/04/25 13:03:30;;;;;;;67.90;48.50;;;31.60;99.90;;;;;;5075661;28;20037;-64
2022/04/25 13:05:57;;;;;;;73.05;51.55;;;31.60;99.90;;;;;;5075905;28;20036;-66
2022/04/25 13:08:24;;;;;;;75.32;51.67;;;31.50;99.90;;;;;;5076018;28;20047;-66
2022/04/25 13:10:50;;;;;;;85.85;54.75;;;31.50;99.90;;;;;;5074061;28;20024;-66
2022/04/25 13:13:17;;;;;;;105.90;75.63;;;31.50;99.90;;;;;;5071772;28;20033;-64
2022/04/25 13:15:47;;;;;;;87.65;59.38;;;31.50;99.90;;;;;;5070466;28;20032;-64
2022/04/25 13:18:14;;;;;;;84.15;55.92;;;31.50;99.90;;;;;;5075593;28;20423;-63
2022/04/25 13:20:40;;;;;;;83.50;56.35;;;31.50;99.90;;;;;;5061712;28;20037;-64
2022/04/25 13:23:07;;;;;;;68.35;47.05;;;31.40;99.90;;;;;;5073688;28;20472;-67
2022/04/25 13:25:34;;;;;;;65.13;42.88;;;31.40;99.90;;;;;;5072764;28;20063;-64
2022/04/25 13:28:01;;;;;;;66.40;40.30;;;31.30;99.90;;;;;;5071474;28;20036;-64
2022/04/25 13:30:27;;;;;;;57.70;38.20;;;31.20;99.90;;;;;;5077165;28;20098;-64